CheckWX is a tool to help pilots better visualize weather data.  It is not intended as a substitute for an official pre-flight weather briefing.

23:59:59 UTC

KVAD METAR
Moody AFB Airport
Valdosta, Georgia, USA
Current

1 hour ago

KVAD 062256Z AUTO 16008KT 10SM CLR 25/23 A2996 RMK AO2 LTG DSNT NW SLP146 P0001 T02510233 $
Observed
Jul-6 @ 22:56 UTC
Wind
  • 160° at 8 KTS
Visibility
10 SM
Flight Rules
VFR
Cloud Levels
  • Clear skies
Temperature
25°C / 77°F
Dewpoint
23°C / 73°F
Humidity
89%
Altimeter
29.96" Hg
Pressure
1014.52 hPa
Current Rain
0.01"
Previous

2 hours ago

KVAD 062156Z AUTO 17004KT 10SM CLR 24/23 A2996 RMK AO2 LTG DSNT NW RAE47 TSE2058 SLP146 P0003 T02390228 $
Observed
Jul-6 @ 21:56 UTC
Wind
  • 170° at 4 KTS
Visibility
10 SM
Flight Rules
VFR
Cloud Levels
  • Clear skies
Temperature
24°C / 75°F
Dewpoint
23°C / 73°F
Humidity
94%
Altimeter
29.96" Hg
Pressure
1014.52 hPa
Current Rain
0.03"
Previous

3 hours ago

KVAD 062058Z AUTO 17003KT 8SM -RA VCTS SCT021 BKN031 24/22 A2997 RMK AO2 TSE58 SLP149 $
Observed
Jul-6 @ 20:58 UTC
Wind
  • 170° at 3 KTS
Visibility
8 SM
Flight Rules
VFR
Conditions
Light Rain, Area Thunderstorm
Cloud Levels
  • Scattered at 2,100' AGL
  • Broken at 3,100' AGL
Temperature
24°C / 75°F
Dewpoint
22°C / 72°F
Humidity
89%
Altimeter
29.97" Hg
Pressure
1014.92 hPa